createdAt,value
2022-10-06T00:00:38.989Z,83.98
2022-10-06T00:05:40.539Z,84.11
2022-10-06T00:10:41.893Z,84.23
2022-10-06T00:15:43.242Z,83.48
2022-10-06T00:20:44.707Z,84.26
2022-10-06T00:25:46.018Z,83.71
2022-10-06T00:30:47.554Z,83.89
2022-10-06T00:35:56.438Z,83.48
2022-10-06T00:40:57.955Z,83.76
2022-10-06T00:45:59.346Z,84.00
2022-10-06T00:51:00.756Z,84.08
2022-10-06T00:56:01.971Z,83.70
2022-10-06T01:01:03.936Z,84.42
2022-10-06T01:06:05.727Z,84.10
2022-10-06T01:11:13.136Z,84.17
2022-10-06T01:16:26.872Z,84.67
2022-10-06T01:21:38.450Z,84.53
2022-10-06T01:26:45.214Z,85.18
2022-10-06T01:31:46.603Z,85.02
2022-10-06T01:36:47.936Z,84.98
2022-10-06T01:41:49.916Z,84.73
2022-10-06T01:46:51.321Z,84.61
2022-10-06T01:51:52.677Z,84.78
2022-10-06T01:56:53.933Z,84.88
2022-10-06T02:01:55.770Z,84.83
2022-10-06T02:06:57.132Z,85.19
2022-10-06T02:11:58.443Z,85.63
2022-10-06T02:17:00.406Z,84.73
2022-10-06T02:22:07.215Z,85.19
2022-10-06T02:27:08.631Z,85.55
2022-10-06T02:32:10.714Z,84.88
2022-10-06T02:37:13.077Z,85.13
2022-10-06T02:42:14.408Z,84.82
2022-10-06T02:47:16.271Z,84.73
2022-10-06T02:52:17.520Z,85.30
2022-10-06T02:57:18.816Z,84.79
2022-10-06T03:02:20.295Z,84.84
2022-10-06T03:07:21.733Z,84.91
2022-10-06T03:12:23.063Z,85.43
2022-10-06T03:17:24.405Z,85.20
2022-10-06T03:22:25.759Z,85.30
2022-10-06T03:27:27.139Z,85.48
2022-10-06T03:32:28.483Z,85.22
2022-10-06T03:37:29.845Z,85.33
2022-10-06T03:42:32.143Z,85.37
2022-10-06T03:47:33.488Z,84.64
2022-10-06T03:52:34.740Z,84.86
2022-10-06T03:57:36.051Z,84.76
2022-10-06T04:02:37.365Z,85.37
2022-10-06T04:07:38.685Z,84.88
2022-10-06T04:12:40.057Z,85.22
2022-10-06T04:17:41.287Z,84.98
2022-10-06T04:22:42.614Z,85.55
2022-10-06T04:27:43.954Z,84.63
2022-10-06T04:32:45.905Z,85.00
2022-10-06T04:37:47.226Z,85.06
2022-10-06T04:42:49.244Z,85.36
2022-10-06T04:47:50.600Z,84.70
2022-10-06T04:52:52.975Z,84.77
2022-10-06T04:57:55.129Z,85.06
2022-10-06T05:02:56.531Z,84.69
2022-10-06T05:07:57.763Z,85.27
2022-10-06T05:12:59.166Z,84.57
2022-10-06T05:18:00.535Z,85.29
2022-10-06T05:23:01.898Z,85.07
2022-10-06T05:28:03.215Z,85.10
2022-10-06T05:33:07.246Z,84.92
2022-10-06T05:38:11.576Z,84.49
2022-10-06T05:43:12.901Z,86.04
2022-10-06T05:48:14.214Z,85.10
2022-10-06T05:53:15.952Z,85.17
2022-10-06T05:58:18.601Z,85.33
2022-10-06T06:03:20.012Z,85.09
2022-10-06T06:08:21.330Z,85.41
2022-10-06T06:13:23.339Z,84.88
2022-10-06T06:18:24.693Z,86.19
2022-10-06T06:23:31.624Z,86.18
2022-10-06T06:28:35.369Z,85.51
2022-10-06T06:33:39.247Z,85.32
2022-10-06T06:38:40.824Z,85.71
2022-10-06T06:43:42.459Z,85.38
2022-10-06T06:48:44.939Z,85.55
2022-10-06T06:53:46.273Z,86.26
2022-10-06T06:58:47.904Z,85.21
2022-10-06T07:03:59.035Z,85.18
2022-10-06T07:09:00.873Z,84.65
2022-10-06T07:14:04.841Z,85.36
2022-10-06T07:19:25.622Z,84.46
2022-10-06T07:24:46.738Z,84.86
2022-10-06T07:29:54.235Z,84.47
2022-10-06T07:34:56.624Z,85.17
2022-10-06T07:39:58.181Z,85.08
2022-10-06T07:45:18.023Z,85.17
2022-10-06T07:50:19.337Z,85.19
2022-10-06T07:55:20.642Z,84.76
2022-10-06T08:00:22.307Z,84.43
2022-10-06T08:05:23.784Z,84.68
2022-10-06T08:10:25.446Z,84.02
2022-10-06T08:15:26.851Z,84.46
2022-10-06T08:20:28.224Z,84.32
2022-10-06T08:25:29.557Z,84.47
2022-10-06T08:30:30.900Z,84.47
2022-10-06T08:35:32.966Z,84.51
2022-10-06T08:40:35.168Z,84.08
2022-10-06T08:45:44.600Z,84.39
2022-10-06T08:51:21.148Z,83.94
2022-10-06T08:56:39.618Z,84.19
2022-10-06T09:01:45.364Z,83.99
2022-10-06T09:06:59.674Z,83.68
2022-10-06T09:12:35.554Z,83.72
2022-10-06T09:17:49.696Z,83.56
2022-10-06T09:22:51.528Z,83.16
2022-10-06T09:27:58.740Z,83.52
2022-10-06T09:33:05.612Z,82.56
2022-10-06T09:38:08.974Z,82.54
2022-10-06T09:43:29.375Z,83.09
2022-10-06T09:48:30.687Z,82.60
2022-10-06T09:53:35.538Z,82.27
2022-10-06T09:58:39.504Z,80.76
2022-10-06T10:04:20.168Z,79.31
2022-10-06T10:09:22.718Z,79.58
2022-10-06T10:14:24.543Z,79.97
2022-10-06T10:19:33.972Z,79.19
2022-10-06T10:24:50.029Z,79.99
2022-10-06T10:30:01.907Z,79.53
2022-10-06T10:35:23.442Z,79.70
2022-10-06T10:40:51.695Z,77.18
2022-10-06T10:46:01.479Z,77.46
2022-10-06T10:51:32.118Z,78.23
2022-10-06T10:56:33.868Z,78.25
2022-10-06T11:01:45.993Z,77.89
2022-10-06T11:07:13.691Z,77.01
2022-10-06T11:12:37.085Z,78.85
2022-10-06T11:17:44.566Z,77.06
2022-10-06T11:22:59.592Z,74.42
2022-10-06T11:28:17.106Z,76.63
2022-10-06T11:33:29.824Z,76.40
2022-10-06T11:38:42.149Z,76.62
2022-10-06T11:44:03.526Z,74.68
2022-10-06T11:49:32.453Z,74.70
2022-10-06T11:54:46.261Z,72.37
2022-10-06T11:59:48.523Z,72.35
2022-10-06T12:10:36.266Z,73.55
2022-10-06T12:21:50.578Z,73.08
2022-10-06T12:27:10.517Z,72.83
2022-10-06T12:32:24.700Z,73.80
2022-10-06T12:37:29.130Z,74.18
2022-10-06T12:42:31.422Z,73.11
2022-10-06T12:47:39.293Z,72.13
2022-10-06T12:52:47.880Z,73.13
2022-10-06T12:57:54.103Z,72.73
2022-10-06T13:02:57.682Z,71.96
2022-10-06T13:08:02.028Z,72.07
2022-10-06T13:13:21.146Z,71.35
2022-10-06T13:18:23.203Z,71.07
2022-10-06T13:23:37.697Z,66.93
2022-10-06T13:28:52.575Z,70.04
2022-10-06T13:34:06.668Z,70.19
2022-10-06T13:39:21.941Z,70.27
2022-10-06T13:44:26.061Z,67.83
2022-10-06T13:49:45.169Z,70.45
2022-10-06T13:54:54.381Z,66.88
2022-10-06T14:00:23.040Z,71.69
2022-10-06T14:05:29.414Z,69.28
2022-10-06T14:10:48.447Z,67.96
2022-10-06T14:15:53.806Z,68.55
2022-10-06T14:20:57.059Z,69.73
2022-10-06T14:25:58.956Z,69.09
2022-10-06T14:31:00.407Z,67.04
2022-10-06T14:36:02.719Z,69.78
2022-10-06T14:41:04.035Z,64.01
2022-10-06T14:46:08.479Z,66.41
2022-10-06T14:51:11.617Z,69.83
2022-10-06T14:56:15.693Z,71.00
2022-10-06T15:01:19.479Z,69.71
2022-10-06T15:06:39.917Z,70.25
2022-10-06T15:11:41.496Z,70.17
2022-10-06T15:16:44.413Z,69.54
2022-10-06T15:21:46.094Z,66.98
2022-10-06T15:27:06.413Z,68.42
2022-10-06T15:32:08.212Z,65.81
2022-10-06T15:37:09.612Z,68.71
2022-10-06T15:42:11.017Z,67.35
2022-10-06T15:47:12.853Z,67.56
2022-10-06T15:52:14.213Z,67.21
2022-10-06T15:57:20.638Z,66.66
2022-10-06T16:02:22.970Z,66.00
2022-10-06T16:07:24.502Z,67.35
2022-10-06T16:12:28.314Z,68.00
2022-10-06T16:17:30.573Z,64.98
2022-10-06T16:22:31.947Z,64.88
2022-10-06T16:27:33.686Z,68.21
2022-10-06T16:32:35.210Z,66.86
2022-10-06T16:37:36.627Z,68.22
2022-10-06T16:42:38.216Z,67.67
2022-10-06T16:47:40.138Z,68.58
2022-10-06T16:52:41.658Z,68.64
2022-10-06T16:57:43.697Z,68.88
2022-10-06T17:02:45.036Z,68.71
2022-10-06T17:07:46.378Z,67.42
2022-10-06T17:12:47.655Z,68.16
2022-10-06T17:17:48.983Z,68.56
2022-10-06T17:22:50.256Z,68.92
2022-10-06T17:27:51.564Z,68.42
2022-10-06T17:32:52.944Z,68.36
2022-10-06T17:37:54.294Z,68.49
2022-10-06T17:42:55.641Z,69.30
2022-10-06T17:47:57.013Z,69.26
2022-10-06T17:52:59.335Z,69.62
2022-10-06T17:58:00.718Z,69.34
2022-10-06T18:03:02.004Z,69.74
2022-10-06T18:08:05.251Z,70.18
2022-10-06T18:13:07.121Z,70.10
2022-10-06T18:18:08.445Z,70.50
2022-10-06T18:23:09.885Z,71.26
2022-10-06T18:28:11.983Z,71.75
2022-10-06T18:35:57.508Z,70.88
2022-10-06T18:38:41.617Z,71.31
2022-10-06T18:43:43.709Z,71.38
2022-10-06T18:49:00.272Z,71.28
2022-10-06T18:54:05.305Z,72.26
2022-10-06T18:59:13.621Z,71.64
2022-10-06T19:04:18.148Z,71.71
2022-10-06T19:09:22.331Z,72.10
2022-10-06T19:14:29.693Z,71.99
2022-10-06T19:19:31.752Z,72.61
2022-10-06T19:24:35.786Z,72.77
2022-10-06T19:29:37.848Z,72.65
2022-10-06T19:34:39.224Z,73.06
2022-10-06T19:39:42.695Z,73.02
2022-10-06T19:44:44.330Z,72.71
2022-10-06T19:49:45.670Z,73.58
2022-10-06T19:54:47.172Z,74.01
2022-10-06T19:59:50.690Z,74.44
2022-10-06T20:04:52.024Z,74.47
2022-10-06T20:09:53.462Z,73.86
2022-10-06T20:14:54.752Z,74.45
2022-10-06T20:19:57.728Z,74.42
2022-10-06T20:25:01.684Z,76.80
2022-10-06T20:30:03.712Z,74.60
2022-10-06T20:35:05.158Z,74.16
2022-10-06T20:40:25.200Z,75.19
2022-10-06T20:45:26.569Z,75.07
2022-10-06T20:50:31.021Z,76.96
2022-10-06T20:55:32.361Z,77.49
2022-10-06T21:00:40.592Z,75.66
2022-10-06T21:05:48.101Z,76.51
2022-10-06T21:11:00.395Z,78.40
2022-10-06T21:16:02.824Z,78.35
2022-10-06T21:21:07.568Z,78.54
2022-10-06T21:26:12.461Z,79.45
2022-10-06T21:31:16.380Z,78.22
2022-10-06T21:36:22.216Z,78.71
2022-10-06T21:41:28.671Z,78.58
2022-10-06T21:46:33.018Z,77.90
2022-10-06T21:51:34.897Z,77.48
2022-10-06T21:56:36.240Z,78.04
2022-10-06T22:01:40.652Z,79.23
2022-10-06T22:06:43.647Z,78.01
2022-10-06T22:11:46.071Z,77.45
2022-10-06T22:16:48.089Z,78.26
2022-10-06T22:21:49.466Z,77.44
2022-10-06T22:26:50.848Z,80.10
2022-10-06T22:31:52.656Z,80.25
2022-10-06T22:36:54.031Z,78.96
2022-10-06T22:41:55.397Z,78.43
2022-10-06T22:46:56.831Z,79.58
2022-10-06T22:51:58.107Z,78.97
2022-10-06T22:56:59.508Z,79.50
2022-10-06T23:02:00.829Z,79.70
2022-10-06T23:07:02.184Z,79.22
2022-10-06T23:12:03.686Z,81.91
2022-10-06T23:17:05.021Z,81.12
2022-10-06T23:22:06.352Z,80.43
2022-10-06T23:27:07.712Z,81.03
2022-10-06T23:32:09.116Z,82.00
2022-10-06T23:37:10.536Z,80.37
2022-10-06T23:42:12.139Z,80.72
2022-10-06T23:47:13.387Z,81.01
2022-10-06T23:52:14.719Z,80.80
2022-10-06T23:57:16.096Z,80.92
